createdAt,value
2018-11-20T00:00:15.978Z,999.59
2018-11-20T00:03:30.158Z,999.37
2018-11-20T00:04:44.810Z,999.78
2018-11-20T00:05:58.978Z,999.39
2018-11-20T00:07:44.571Z,999.39
2018-11-20T00:08:59.649Z,999.29
2018-11-20T00:10:15.028Z,999.38
2018-11-20T00:11:29.509Z,999.29
2018-11-20T00:12:43.716Z,999.23
2018-11-20T00:13:58.197Z,999.26
2018-11-20T00:15:11.895Z,999.08
2018-11-20T00:17:55.185Z,999
2018-11-20T00:19:24.486Z,999.11
2018-11-20T00:20:38.345Z,999.02
2018-11-20T00:21:53.267Z,998.97
2018-11-20T00:23:08.630Z,999.03
2018-11-20T00:24:23.107Z,998.86
2018-11-20T00:25:37.844Z,998.87
2018-11-20T00:26:52.384Z,998.83
2018-11-20T00:28:06.578Z,998.85
2018-11-20T00:29:21.027Z,998.75
2018-11-20T00:30:35.990Z,998.86
2018-11-20T00:31:50.696Z,998.71
2018-11-20T00:33:05.681Z,999.15
2018-11-20T00:34:20.111Z,998.82
2018-11-20T00:35:35.022Z,998.9
2018-11-20T00:36:49.448Z,998.72
2018-11-20T00:38:03.952Z,998.77
2018-11-20T00:39:18.752Z,998.62
2018-11-20T00:40:32.671Z,998.63
2018-11-20T00:41:47.095Z,998.7
2018-11-20T00:43:01.532Z,998.76
2018-11-20T00:44:15.735Z,998.68
2018-11-20T00:45:30.198Z,998.55
2018-11-20T00:46:44.128Z,998.64
2018-11-20T00:47:59.115Z,998.6
2018-11-20T00:49:13.890Z,998.6
2018-11-20T00:50:27.814Z,998.78
2018-11-20T00:51:41.723Z,998.68
2018-11-20T00:52:55.977Z,998.62
2018-11-20T00:54:09.432Z,998.49
2018-11-20T00:55:24.138Z,999.09
2018-11-20T00:56:38.578Z,998.55
2018-11-20T00:57:53.523Z,998.57
2018-11-20T00:59:07.326Z,998.62
2018-11-20T01:00:22.175Z,998.68
2018-11-20T01:01:36.335Z,998.67
2018-11-20T01:03:05.497Z,998.64
2018-11-20T01:04:19.861Z,998.66
2018-11-20T01:05:35.119Z,998.63
2018-11-20T01:07:07.007Z,998.84
2018-11-20T01:08:21.443Z,998.73
2018-11-20T01:09:36.611Z,998.64
2018-11-20T01:10:50.290Z,998.67
2018-11-20T01:12:04.716Z,998.61
2018-11-20T01:13:34.072Z,998.54
2018-11-20T01:14:48.673Z,998.59
2018-11-20T01:16:03.076Z,998.63
2018-11-20T01:17:16.775Z,998.65
2018-11-20T01:18:30.973Z,998.58
2018-11-20T01:19:45.235Z,998.59
2018-11-20T01:20:59.974Z,998.48
2018-11-20T01:22:14.773Z,998.58
2018-11-20T01:23:29.507Z,998.54
2018-11-20T01:24:43.740Z,998.56
2018-11-20T01:25:57.902Z,998.41
2018-11-20T01:27:12.879Z,998.55
2018-11-20T01:28:27.778Z,998.44
2018-11-20T01:29:57.511Z,998.56
2018-11-20T01:31:12.372Z,998.34
2018-11-20T01:32:26.938Z,998.51
2018-11-20T01:33:41.450Z,998.5
2018-11-20T01:34:55.239Z,998.37
2018-11-20T01:36:10.741Z,998.58
2018-11-20T01:37:24.824Z,998.43
2018-11-20T01:38:39.981Z,998.53
2018-11-20T01:39:54.105Z,998.41
2018-11-20T01:41:08.706Z,998.48
2018-11-20T01:42:23.979Z,998.37
2018-11-20T01:43:37.824Z,998.46
2018-11-20T01:44:51.885Z,998.38
2018-11-20T01:46:06.315Z,998.4
2018-11-20T01:47:21.036Z,998.42
2018-11-20T01:48:35.377Z,998.2
2018-11-20T01:49:50.384Z,998.27
2018-11-20T01:51:04.982Z,998.62
2018-11-20T01:52:19.821Z,998.29
2018-11-20T01:53:34.504Z,998.3
2018-11-20T01:54:48.433Z,998.23
2018-11-20T01:56:03.158Z,998.39
2018-11-20T01:57:17.735Z,998.43
2018-11-20T01:58:31.867Z,998.21
2018-11-20T01:59:46.607Z,998.2
2018-11-20T02:01:01.100Z,998.24
2018-11-20T02:02:15.099Z,998.24
2018-11-20T02:03:29.576Z,998.35
2018-11-20T02:04:44.295Z,998.18
2018-11-20T02:05:58.441Z,998.12
2018-11-20T02:07:12.601Z,998.12
2018-11-20T02:08:27.397Z,998.22
2018-11-20T02:09:42.358Z,998.03
2018-11-20T02:10:56.297Z,998.21
2018-11-20T02:12:10.787Z,998.04
2018-11-20T02:13:25.213Z,998.1
2018-11-20T02:14:39.520Z,998.02
2018-11-20T02:15:53.800Z,998.05
2018-11-20T02:17:08.413Z,997.89
2018-11-20T02:18:23.132Z,998.01
2018-11-20T02:19:37.316Z,998
2018-11-20T02:20:52.435Z,997.97
2018-11-20T02:22:07.856Z,998.04
2018-11-20T02:23:23.540Z,997.93
2018-11-20T02:24:38.035Z,998.07
2018-11-20T02:25:53.181Z,997.94
2018-11-20T02:27:07.840Z,998.09
2018-11-20T02:28:22.298Z,998.11
2018-11-20T02:29:36.785Z,998.05
2018-11-20T02:30:51.125Z,998.03
2018-11-20T02:32:05.787Z,998.1
2018-11-20T02:33:20.662Z,998.15
2018-11-20T02:34:35.860Z,998.13
2018-11-20T02:35:50.570Z,998.03
2018-11-20T02:37:05.314Z,997.95
2018-11-20T02:38:20.027Z,997.95
2018-11-20T02:39:34.856Z,997.93
2018-11-20T02:40:49.283Z,997.91
2018-11-20T02:42:04.038Z,997.82
2018-11-20T02:43:18.613Z,997.8
2018-11-20T02:44:33.610Z,997.8
2018-11-20T02:45:48.311Z,997.83
2018-11-20T02:47:32.893Z,997.7
2018-11-20T02:48:47.138Z,997.88
2018-11-20T02:50:01.823Z,997.64
2018-11-20T02:51:16.617Z,997.74
2018-11-20T02:52:31.285Z,997.74
2018-11-20T02:53:45.891Z,997.65
2018-11-20T02:55:14.269Z,997.72
2018-11-20T02:56:28.952Z,997.66
2018-11-20T02:57:43.594Z,997.61
2018-11-20T02:58:57.748Z,997.67
2018-11-20T03:00:12.008Z,997.6
2018-11-20T03:01:26.921Z,997.83
2018-11-20T03:02:40.853Z,997.73
2018-11-20T03:03:55.413Z,997.52
2018-11-20T03:05:11.362Z,997.68
2018-11-20T03:06:26.123Z,997.54
2018-11-20T03:07:40.246Z,997.57
2018-11-20T03:08:54.163Z,997.63
2018-11-20T03:10:08.974Z,997.56
2018-11-20T03:11:23.899Z,997.6
2018-11-20T03:12:38.662Z,997.58
2018-11-20T03:13:53.539Z,997.52
2018-11-20T03:15:07.766Z,997.59
2018-11-20T03:16:22.423Z,997.49
2018-11-20T03:17:36.609Z,997.48
2018-11-20T03:18:50.636Z,997.58
2018-11-20T03:20:05.199Z,997.63
2018-11-20T03:21:19.611Z,997.48
2018-11-20T03:22:34.129Z,997.48
2018-11-20T03:23:48.742Z,997.55
2018-11-20T03:25:03.766Z,997.49
2018-11-20T03:26:32.399Z,997.49
2018-11-20T03:27:47.720Z,997.54
2018-11-20T03:29:02.364Z,997.55
2018-11-20T03:30:16.804Z,997.47
2018-11-20T03:31:31.769Z,997.62
2018-11-20T03:32:45.418Z,997.49
2018-11-20T03:33:59.881Z,997.46
2018-11-20T03:35:14.606Z,997.51
2018-11-20T03:36:29.172Z,997.39
2018-11-20T03:37:43.413Z,997.5
2018-11-20T03:38:57.407Z,997.53
2018-11-20T03:40:11.825Z,997.44
2018-11-20T03:41:25.501Z,997.45
2018-11-20T03:42:39.938Z,997.55
2018-11-20T03:45:23.773Z,997.39
2018-11-20T03:46:38.208Z,997.41
2018-11-20T03:47:52.619Z,997.45
2018-11-20T03:49:08.472Z,997.27
2018-11-20T03:50:22.457Z,997.31
2018-11-20T03:51:37.166Z,997.41
2018-11-20T03:52:51.055Z,997.48
2018-11-20T03:54:05.461Z,997.4
2018-11-20T03:55:19.737Z,997.34
2018-11-20T03:56:33.937Z,997.46
2018-11-20T03:57:48.963Z,997.4
2018-11-20T03:59:18.035Z,997.37
2018-11-20T04:00:32.549Z,997.57
2018-11-20T04:01:47.212Z,997.41
2018-11-20T04:03:01.395Z,997.43
2018-11-20T04:04:15.934Z,997.62
2018-11-20T04:06:13.952Z,997.65
2018-11-20T04:07:28.141Z,997.44
2018-11-20T04:08:42.281Z,997.51
2018-11-20T04:09:56.478Z,997.45
2018-11-20T04:11:10.398Z,997.32
2018-11-20T04:12:25.017Z,997.34
2018-11-20T04:13:39.423Z,997.46
2018-11-20T04:14:53.714Z,997.37
2018-11-20T04:16:08.556Z,997.27
2018-11-20T04:17:23.064Z,997.39
2018-11-20T04:18:37.229Z,997.31
2018-11-20T04:19:52.045Z,997.36
2018-11-20T04:21:08.546Z,997.45
2018-11-20T04:22:24.022Z,997.38
2018-11-20T04:23:38.218Z,997.37
2018-11-20T04:24:52.449Z,997.2
2018-11-20T04:26:07.049Z,997.35
2018-11-20T04:27:22.160Z,997.15
2018-11-20T04:30:05.012Z,997.2
2018-11-20T04:31:19.480Z,997.05
2018-11-20T04:32:34.267Z,997.34
2018-11-20T04:33:47.933Z,997.01
2018-11-20T04:35:02.336Z,997.09
2018-11-20T04:36:16.979Z,997.08
2018-11-20T04:37:31.648Z,997.24
2018-11-20T04:38:46.813Z,997.14
2018-11-20T04:40:01.834Z,997.23
2018-11-20T04:41:16.601Z,997.14
2018-11-20T04:42:45.422Z,997.08
2018-11-20T04:43:59.939Z,997.14
2018-11-20T04:45:30.740Z,997.02
2018-11-20T04:46:44.702Z,997.11
2018-11-20T04:47:58.869Z,997.08
2018-11-20T04:49:14.062Z,996.93
2018-11-20T04:50:28.260Z,996.91
2018-11-20T04:51:42.161Z,996.93
2018-11-20T04:52:56.102Z,996.95
2018-11-20T04:54:22.292Z,996.88
2018-11-20T04:55:36.504Z,996.89
2018-11-20T04:56:50.679Z,996.93
2018-11-20T04:58:05.403Z,996.88
2018-11-20T04:59:19.855Z,996.92
2018-11-20T05:00:34.393Z,997.02
2018-11-20T05:01:48.588Z,996.92
2018-11-20T05:03:03.050Z,996.84
2018-11-20T05:04:17.841Z,996.95
2018-11-20T05:05:32.485Z,996.88
2018-11-20T05:06:46.746Z,996.89
2018-11-20T05:08:02.364Z,996.89
2018-11-20T05:09:16.641Z,996.88
2018-11-20T05:10:31.010Z,996.98
2018-11-20T05:11:45.210Z,996.89
2018-11-20T05:12:59.187Z,996.99
2018-11-20T05:14:13.553Z,996.99
2018-11-20T05:15:28.073Z,997.03
2018-11-20T05:16:42.757Z,996.92
2018-11-20T05:17:57.448Z,996.98
2018-11-20T05:19:11.644Z,996.94
2018-11-20T05:20:25.794Z,996.98
2018-11-20T05:21:39.480Z,996.96
2018-11-20T05:22:53.410Z,996.98
2018-11-20T05:24:07.321Z,996.99
2018-11-20T05:25:21.483Z,997
2018-11-20T05:26:36.435Z,996.95
2018-11-20T05:29:20.869Z,996.97
2018-11-20T05:30:35.381Z,996.85
2018-11-20T05:31:49.935Z,996.8
2018-11-20T05:33:04.126Z,996.77
2018-11-20T05:34:17.818Z,996.81
2018-11-20T05:35:32.428Z,996.73
2018-11-20T05:36:47.319Z,996.85
2018-11-20T05:38:01.664Z,996.76
2018-11-20T05:39:16.426Z,996.88
2018-11-20T05:40:30.556Z,996.92
2018-11-20T05:41:45.496Z,996.92
2018-11-20T05:42:59.975Z,996.82
2018-11-20T05:44:41.775Z,996.73
2018-11-20T05:45:56.775Z,996.73
2018-11-20T05:47:11.820Z,996.89
2018-11-20T05:48:26.527Z,997.02
2018-11-20T05:49:40.447Z,996.86
2018-11-20T05:50:54.883Z,996.81
2018-11-20T05:52:08.825Z,996.77
2018-11-20T05:53:32.293Z,996.8
2018-11-20T05:54:46.765Z,996.78
2018-11-20T05:56:00.617Z,996.7
2018-11-20T05:57:14.815Z,996.75
2018-11-20T05:58:29.268Z,996.81
2018-11-20T05:59:44.110Z,996.8
2018-11-20T06:00:58.873Z,996.8
2018-11-20T06:02:13.063Z,996.71
2018-11-20T06:03:29.355Z,996.72
2018-11-20T06:04:44.084Z,996.78
2018-11-20T06:06:13.207Z,996.98
2018-11-20T06:07:27.524Z,996.94
2018-11-20T06:08:41.976Z,996.89
2018-11-20T06:09:56.674Z,996.89
2018-11-20T06:11:11.489Z,996.97
2018-11-20T06:12:25.471Z,996.94
2018-11-20T06:13:40.127Z,996.85
2018-11-20T06:14:54.668Z,996.82
2018-11-20T06:16:08.867Z,996.97
2018-11-20T06:17:23.170Z,996.91
2018-11-20T06:18:37.639Z,997.04
2018-11-20T06:19:52.102Z,996.93
2018-11-20T06:21:06.542Z,997.1
2018-11-20T06:22:21.488Z,996.95
2018-11-20T06:23:36.350Z,997.05
2018-11-20T06:24:50.758Z,996.91
2018-11-20T06:26:05.447Z,997.02
2018-11-20T06:27:19.694Z,996.97
2018-11-20T06:28:34.716Z,996.97
2018-11-20T06:29:49.677Z,997
2018-11-20T06:31:04.116Z,997.09
2018-11-20T06:32:33.507Z,997.07
2018-11-20T06:33:47.427Z,997.13
2018-11-20T06:35:02.303Z,997.02
2018-11-20T06:36:16.842Z,997
2018-11-20T06:37:30.757Z,996.99
2018-11-20T06:38:44.692Z,997.02
2018-11-20T06:39:58.624Z,996.97
2018-11-20T06:41:13.266Z,996.95
2018-11-20T06:42:29.740Z,996.91
2018-11-20T06:43:44.660Z,996.97
2018-11-20T06:44:58.861Z,996.98
2018-11-20T06:46:13.607Z,997.01
2018-11-20T06:47:27.971Z,996.95
2018-11-20T06:48:42.366Z,997.03
2018-11-20T06:49:56.714Z,996.93
2018-11-20T06:51:10.688Z,996.99
2018-11-20T06:52:25.191Z,997
2018-11-20T06:53:40.368Z,997.04
2018-11-20T06:54:55.294Z,997.04
2018-11-20T06:56:09.498Z,996.96
2018-11-20T06:57:38.666Z,997.2
2018-11-20T06:58:53.787Z,997.09
2018-11-20T07:00:08.171Z,997.04
2018-11-20T07:01:22.168Z,997.03
2018-11-20T07:02:37.322Z,996.99
2018-11-20T07:04:09.036Z,997.05
2018-11-20T07:05:23.745Z,997.03
2018-11-20T07:06:38.168Z,996.97
2018-11-20T07:07:52.734Z,997.04
2018-11-20T07:09:09.197Z,997.03
2018-11-20T07:10:23.878Z,996.99
2018-11-20T07:11:38.577Z,996.94
2018-11-20T07:12:54.785Z,997.02
2018-11-20T07:14:09.288Z,997.01
2018-11-20T07:15:23.656Z,997.03
2018-11-20T07:16:39.843Z,997.04
2018-11-20T07:17:54.843Z,997.02
2018-11-20T07:19:09.506Z,997.04
2018-11-20T07:20:24.509Z,997.09
2018-11-20T07:21:39.147Z,997.05
2018-11-20T07:22:54.630Z,997.02
2018-11-20T07:24:10.980Z,997.09
2018-11-20T07:25:25.974Z,997.08
2018-11-20T07:26:41.712Z,997.04
2018-11-20T07:29:27.514Z,997.12
2018-11-20T07:30:44.878Z,997.11
2018-11-20T07:32:00.882Z,997.11
2018-11-20T07:33:15.624Z,997.02
2018-11-20T07:34:29.904Z,997.06
2018-11-20T07:35:45.408Z,997.09
2018-11-20T07:37:00.489Z,996.99
2018-11-20T07:38:15.997Z,996.94
2018-11-20T07:39:30.628Z,996.99
2018-11-20T07:40:44.812Z,997.06
2018-11-20T07:42:00.477Z,996.99
2018-11-20T07:43:29.073Z,996.96
2018-11-20T07:44:44.286Z,997.01
2018-11-20T07:45:58.701Z,996.98
2018-11-20T07:47:13.245Z,996.93
2018-11-20T07:48:29.540Z,997.06
2018-11-20T07:49:44.098Z,996.99
2018-11-20T07:50:58.797Z,996.93
2018-11-20T07:52:27.299Z,996.91
2018-11-20T07:53:41.630Z,996.93
2018-11-20T07:54:56.358Z,996.85
2018-11-20T07:56:10.501Z,996.92
2018-11-20T07:57:26.069Z,996.86
2018-11-20T07:58:40.759Z,996.83
2018-11-20T07:59:55.833Z,996.92
2018-11-20T08:01:11.962Z,996.86
2018-11-20T08:02:27.040Z,996.83
2018-11-20T08:03:41.649Z,997.05
2018-11-20T08:04:56.357Z,996.89
2018-11-20T08:06:11.232Z,997
2018-11-20T08:07:26.041Z,996.89
2018-11-20T08:08:40.583Z,996.91
2018-11-20T08:09:54.630Z,996.89
2018-11-20T08:11:09.649Z,996.79
2018-11-20T08:12:24.107Z,996.81
2018-11-20T08:13:38.325Z,996.99
2018-11-20T08:14:53.019Z,996.91
2018-11-20T08:16:07.879Z,996.87
2018-11-20T08:17:23.449Z,996.9
2018-11-20T08:18:38.277Z,996.87
2018-11-20T08:19:53.206Z,997.14
2018-11-20T08:21:07.446Z,996.94
2018-11-20T08:22:22.138Z,996.91
2018-11-20T08:23:36.822Z,996.78
2018-11-20T08:24:51.176Z,996.76
2018-11-20T08:26:05.301Z,996.76
2018-11-20T08:27:20.207Z,996.87
2018-11-20T08:28:34.221Z,996.69
2018-11-20T08:29:48.290Z,996.85
2018-11-20T08:31:02.807Z,996.75
2018-11-20T08:32:17.683Z,996.8
2018-11-20T08:33:31.858Z,996.8
2018-11-20T08:34:46.518Z,996.76
2018-11-20T08:36:01.009Z,996.86
2018-11-20T08:37:15.010Z,996.83
2018-11-20T08:38:29.610Z,996.79
2018-11-20T08:39:44.194Z,996.87
2018-11-20T08:40:58.953Z,996.81
2018-11-20T08:42:12.703Z,996.87
2018-11-20T08:43:28.095Z,996.76
2018-11-20T08:44:42.646Z,996.84
2018-11-20T08:45:57.678Z,996.85
2018-11-20T08:47:12.739Z,996.79
2018-11-20T08:48:42.604Z,996.74
2018-11-20T08:49:56.840Z,996.77
2018-11-20T08:51:11.041Z,996.84
2018-11-20T08:52:25.492Z,996.71
2018-11-20T08:53:39.496Z,996.7
2018-11-20T08:54:55.204Z,996.78
2018-11-20T08:56:09.643Z,996.7
2018-11-20T08:57:24.085Z,996.79
2018-11-20T08:58:38.265Z,996.87
2018-11-20T08:59:52.529Z,996.81
2018-11-20T09:01:07.201Z,996.73
2018-11-20T09:02:22.344Z,996.75
2018-11-20T09:03:37.138Z,996.7
2018-11-20T09:04:51.552Z,996.66
2018-11-20T09:06:06.182Z,996.72
2018-11-20T09:07:20.908Z,996.9
2018-11-20T09:08:35.225Z,996.72
2018-11-20T09:09:49.810Z,996.67
2018-11-20T09:11:07.633Z,996.75
2018-11-20T09:12:43.497Z,996.63
2018-11-20T09:13:57.786Z,996.62
2018-11-20T09:15:13.237Z,996.66
2018-11-20T09:16:28.020Z,996.6
2018-11-20T09:17:42.961Z,996.57
2018-11-20T09:18:57.697Z,996.56
2018-11-20T09:20:11.761Z,996.72
2018-11-20T09:21:36.425Z,996.59
2018-11-20T09:22:51.264Z,996.61
2018-11-20T09:24:05.681Z,996.49
2018-11-20T09:25:19.993Z,996.73
2018-11-20T09:26:35.450Z,996.54
2018-11-20T09:27:49.665Z,996.65
2018-11-20T09:29:04.769Z,996.56
2018-11-20T09:30:18.717Z,996.68
2018-11-20T09:31:33.272Z,996.51
2018-11-20T09:32:47.599Z,996.48
2018-11-20T09:34:01.564Z,996.49
2018-11-20T09:35:15.931Z,996.54
2018-11-20T09:36:32.580Z,996.52
2018-11-20T09:37:46.811Z,996.48
2018-11-20T09:39:01.694Z,996.48
2018-11-20T09:40:16.377Z,996.57
2018-11-20T09:41:31.039Z,996.49
2018-11-20T09:42:44.546Z,996.4
2018-11-20T09:43:59.257Z,996.42
2018-11-20T09:45:13.727Z,996.37
2018-11-20T09:46:28.309Z,996.43
2018-11-20T09:47:43.365Z,996.45
2018-11-20T09:48:57.567Z,996.42
2018-11-20T09:50:12.373Z,996.36
2018-11-20T09:51:26.589Z,996.35
2018-11-20T09:52:40.499Z,996.39
2018-11-20T09:53:55.663Z,996.34
2018-11-20T09:55:09.636Z,996.32
2018-11-20T09:56:24.057Z,996.27
2018-11-20T09:57:38.464Z,996.32
2018-11-20T09:58:52.678Z,996.24
2018-11-20T10:00:07.268Z,996.25
2018-11-20T10:01:21.267Z,996.27
2018-11-20T10:02:35.528Z,996.24
2018-11-20T10:03:49.704Z,996.25
2018-11-20T10:05:05.202Z,996.13
2018-11-20T10:06:20.044Z,996.23
2018-11-20T10:07:34.485Z,996.3
2018-11-20T10:08:48.957Z,996.35
2018-11-20T10:10:04.228Z,996.24
2018-11-20T10:11:18.973Z,996.18
2018-11-20T10:12:33.540Z,996.29
2018-11-20T10:13:48.581Z,996.16
2018-11-20T10:15:03.571Z,996.13
2018-11-20T10:16:19.124Z,996.02
2018-11-20T10:17:32.789Z,996.21
2018-11-20T10:18:47.795Z,996.19
2018-11-20T10:20:02.253Z,996.24
2018-11-20T10:21:17.207Z,996.28
2018-11-20T10:22:32.262Z,996.15
2018-11-20T10:23:47.790Z,996.18
2018-11-20T10:25:02.910Z,996.13
2018-11-20T10:26:17.905Z,996.21
2018-11-20T10:27:34.207Z,996.24
2018-11-20T10:28:48.404Z,996.17
2018-11-20T10:30:02.618Z,996.16
2018-11-20T10:31:16.280Z,996.18
2018-11-20T10:32:30.080Z,996.2
2018-11-20T10:33:44.587Z,996.18
2018-11-20T10:34:59.705Z,996.14
2018-11-20T10:36:15.064Z,996.2
2018-11-20T10:37:29.663Z,996.21
2018-11-20T10:38:58.995Z,996.17
2018-11-20T10:40:40.410Z,996.19
2018-11-20T10:41:54.263Z,996.16
2018-11-20T10:43:08.837Z,996.21
2018-11-20T10:44:22.510Z,996.2
2018-11-20T10:45:36.742Z,996.23
2018-11-20T10:46:51.023Z,996.15
2018-11-20T10:48:04.248Z,996.14
2018-11-20T10:49:34.161Z,996.21
2018-11-20T10:50:48.143Z,996.07
2018-11-20T10:52:02.190Z,996.06
2018-11-20T10:53:16.555Z,996.07
2018-11-20T10:55:01.038Z,996.05
2018-11-20T10:56:31.271Z,996.07
2018-11-20T10:57:45.684Z,995.99
2018-11-20T10:59:01.592Z,996.09
2018-11-20T11:02:16.058Z,996.15
2018-11-20T11:03:31.314Z,996.11
2018-11-20T11:04:45.741Z,996.14
2018-11-20T11:07:30.749Z,996.15
2018-11-20T11:08:47.422Z,996.1
2018-11-20T11:13:15.366Z,996.17
2018-11-20T11:14:31.530Z,996.06
2018-11-20T11:15:46.356Z,996.06
2018-11-20T11:17:00.077Z,996.02
2018-11-20T11:18:14.894Z,996.06
2018-11-20T11:19:29.547Z,996.06
2018-11-20T11:20:43.240Z,996.12
2018-11-20T11:21:58.098Z,996.03
2018-11-20T11:23:12.304Z,995.98
2018-11-20T11:24:26.788Z,995.91
2018-11-20T11:25:41.347Z,995.9
2018-11-20T11:26:56.499Z,995.97
2018-11-20T11:28:10.666Z,995.9
2018-11-20T11:30:23.313Z,995.87
2018-11-20T11:31:38.908Z,995.8
2018-11-20T11:32:53.563Z,995.86
2018-11-20T11:34:08.406Z,995.91
2018-11-20T11:35:37.902Z,995.84
2018-11-20T11:36:52.374Z,995.84
2018-11-20T11:38:06.595Z,995.77
2018-11-20T11:39:21.143Z,995.8
2018-11-20T11:40:35.865Z,995.78
2018-11-20T11:41:50.488Z,995.79
2018-11-20T11:43:04.482Z,995.99
2018-11-20T11:44:19.203Z,995.87
2018-11-20T11:45:34.300Z,995.83
2018-11-20T11:46:48.060Z,995.85
2018-11-20T11:48:02.290Z,995.81
2018-11-20T11:49:17.071Z,995.85
2018-11-20T11:50:31.589Z,995.85
2018-11-20T11:51:46.076Z,995.88
2018-11-20T11:53:00.447Z,995.86
2018-11-20T11:54:16.932Z,995.84
2018-11-20T11:55:46.161Z,995.88
2018-11-20T11:57:00.615Z,995.83
2018-11-20T11:58:18.698Z,995.83
2018-11-20T11:59:29.343Z,996
2018-11-20T12:00:44.089Z,995.87
2018-11-20T12:03:11.542Z,995.85
2018-11-20T12:04:25.764Z,995.8
2018-11-20T12:05:40.591Z,995.83
2018-11-20T12:07:10.120Z,995.84
2018-11-20T12:08:24.595Z,995.85
2018-11-20T12:09:39.041Z,995.9
2018-11-20T12:11:09.273Z,995.95
2018-11-20T12:12:38.704Z,995.98
2018-11-20T12:14:08.672Z,996.03
2018-11-20T12:15:24.450Z,996.04
2018-11-20T12:16:39.120Z,996.03
2018-11-20T12:17:53.150Z,996.01
2018-11-20T12:19:07.612Z,996.11
2018-11-20T12:20:29.727Z,996.04
2018-11-20T12:21:44.017Z,996.03
2018-11-20T12:22:59.340Z,996.12
2018-11-20T12:24:14.202Z,995.98
2018-11-20T12:25:30.102Z,995.96
2018-11-20T12:26:45.239Z,996.14
2018-11-20T12:28:00.542Z,996.05
2018-11-20T12:29:17.202Z,996.18
2018-11-20T12:30:39.951Z,996.17
2018-11-20T12:31:56.505Z,996
2018-11-20T12:33:11.460Z,996.07
2018-11-20T12:34:26.233Z,995.92
2018-11-20T12:35:42.726Z,995.93
2018-11-20T12:36:59.496Z,995.96
2018-11-20T12:38:17.224Z,996.06
2018-11-20T12:39:32.049Z,996.13
2018-11-20T12:40:50.908Z,996.17
2018-11-20T12:42:04.941Z,996
2018-11-20T12:43:20.193Z,996.02
2018-11-20T12:44:38.393Z,995.98
2018-11-20T12:45:55.807Z,995.87
2018-11-20T12:47:15.171Z,996
2018-11-20T12:48:29.724Z,996.06
2018-11-20T12:49:45.834Z,996
2018-11-20T12:51:19.513Z,996.01
2018-11-20T12:52:34.982Z,996
2018-11-20T12:53:49.112Z,995.97
2018-11-20T12:55:20.417Z,996.06
2018-11-20T12:56:34.458Z,996.01
2018-11-20T12:57:49.458Z,996.04
2018-11-20T12:59:03.806Z,995.97
2018-11-20T13:00:17.789Z,996.01
2018-11-20T13:01:32.388Z,996.09
2018-11-20T13:02:46.936Z,996.01
2018-11-20T13:04:16.273Z,996.02
2018-11-20T13:05:31.723Z,996
2018-11-20T13:06:46.032Z,996.03
2018-11-20T13:08:01.134Z,996.08
2018-11-20T13:10:04.823Z,996.03
2018-11-20T13:11:20.373Z,996.08
2018-11-20T13:12:34.914Z,996.14
2018-11-20T13:13:52.336Z,996.09
2018-11-20T13:15:10.167Z,996.02
2018-11-20T13:16:25.086Z,996.05
2018-11-20T13:17:39.915Z,996.1
2018-11-20T13:18:54.633Z,996.07
2018-11-20T13:20:10.596Z,996.07
2018-11-20T13:21:25.572Z,996.03
2018-11-20T13:22:41.265Z,996.03
2018-11-20T13:23:57.975Z,996.06
2018-11-20T13:25:16.855Z,996.06
2018-11-20T13:26:31.047Z,996.12
2018-11-20T13:27:45.537Z,996.1
2018-11-20T13:29:00.099Z,996.11
2018-11-20T13:30:14.574Z,996.07
2018-11-20T13:31:29.511Z,996.12
2018-11-20T13:32:44.834Z,996.16
2018-11-20T13:34:00.126Z,996.02
2018-11-20T13:35:15.441Z,995.99
2018-11-20T13:36:30.520Z,996
2018-11-20T13:37:45.259Z,996
2018-11-20T13:39:02.944Z,995.99
2018-11-20T13:40:17.169Z,996.03
2018-11-20T13:41:31.661Z,996.13
2018-11-20T13:42:47.467Z,996.05
2018-11-20T13:44:02.106Z,996.07
2018-11-20T13:45:18.519Z,996.08
2018-11-20T13:46:32.352Z,996.06
2018-11-20T13:47:46.338Z,996.16
2018-11-20T13:49:02.917Z,996.08
2018-11-20T13:50:17.204Z,996.1
2018-11-20T13:51:32.423Z,996.11
2018-11-20T13:52:47.786Z,996.15
2018-11-20T13:54:04.791Z,996.17
2018-11-20T13:55:19.354Z,996.2
2018-11-20T13:56:39.299Z,996.09
2018-11-20T13:57:53.777Z,996.15
2018-11-20T13:59:08.403Z,996.17
2018-11-20T14:00:37.546Z,996.17
2018-11-20T14:01:52.540Z,996.14
2018-11-20T14:03:06.482Z,996.16
2018-11-20T14:04:21.488Z,996.18
2018-11-20T14:05:36.186Z,996.16
2018-11-20T14:06:50.399Z,996.17
2018-11-20T14:08:04.989Z,996.15
2018-11-20T14:10:50.111Z,996.21
2018-11-20T14:12:04.266Z,996.21
2018-11-20T14:13:18.499Z,996.17
2018-11-20T14:14:32.937Z,996.26
2018-11-20T14:15:47.429Z,996.17
2018-11-20T14:17:01.487Z,996.18
2018-11-20T14:18:16.000Z,996.17
2018-11-20T14:19:33.736Z,996.23
2018-11-20T14:20:47.976Z,996.16
2018-11-20T14:22:02.447Z,996.13
2018-11-20T14:23:16.199Z,996.17
2018-11-20T14:24:30.560Z,996.16
2018-11-20T14:25:45.269Z,996.23
2018-11-20T14:28:28.118Z,996.27
2018-11-20T14:29:42.943Z,996.32
2018-11-20T14:30:57.126Z,996.35
2018-11-20T14:32:11.686Z,996.36
2018-11-20T14:33:26.606Z,996.31
2018-11-20T14:34:40.942Z,996.31
2018-11-20T14:35:55.449Z,996.37
2018-11-20T14:37:10.023Z,996.38
2018-11-20T14:38:24.543Z,996.41
2018-11-20T14:39:38.765Z,996.42
2018-11-20T14:40:52.968Z,996.5
2018-11-20T14:42:09.940Z,996.44
2018-11-20T14:43:24.235Z,996.47
2018-11-20T14:44:39.005Z,996.42
2018-11-20T14:45:53.425Z,996.44
2018-11-20T14:47:07.667Z,996.41
2018-11-20T14:48:22.266Z,996.55
2018-11-20T14:49:40.873Z,996.49
2018-11-20T14:50:51.202Z,996.49
2018-11-20T14:52:05.491Z,996.54
2018-11-20T14:53:19.757Z,996.58
2018-11-20T14:54:34.566Z,996.56
2018-11-20T14:55:48.794Z,996.55
2018-11-20T14:57:17.940Z,996.54
2018-11-20T14:58:32.530Z,996.53
2018-11-20T14:59:46.791Z,996.51
2018-11-20T15:01:00.771Z,996.45
2018-11-20T15:02:15.538Z,996.54
2018-11-20T15:03:30.262Z,996.51
2018-11-20T15:04:45.017Z,996.58
2018-11-20T15:06:43.048Z,996.53
2018-11-20T15:07:59.238Z,996.51
2018-11-20T15:09:13.686Z,996.53
2018-11-20T15:10:27.680Z,996.57
2018-11-20T15:11:43.238Z,996.56
2018-11-20T15:12:57.204Z,996.55
2018-11-20T15:14:11.915Z,996.55
2018-11-20T15:15:26.137Z,996.56
2018-11-20T15:16:40.354Z,996.59
2018-11-20T15:17:54.585Z,996.58
2018-11-20T15:19:09.098Z,996.67
2018-11-20T15:20:23.282Z,996.61
2018-11-20T15:21:37.516Z,996.67
2018-11-20T15:22:52.175Z,996.67
2018-11-20T15:24:07.250Z,996.62
2018-11-20T15:25:22.207Z,996.6
2018-11-20T15:26:36.722Z,996.6
2018-11-20T15:27:53.583Z,996.63
2018-11-20T15:29:09.250Z,996.66
2018-11-20T15:30:24.347Z,996.59
2018-11-20T15:31:39.645Z,996.6
2018-11-20T15:33:09.236Z,996.55
2018-11-20T15:34:24.024Z,996.61
2018-11-20T15:35:38.450Z,996.59
2018-11-20T15:36:52.450Z,996.59
2018-11-20T15:38:07.170Z,996.58
2018-11-20T15:39:21.506Z,996.6
2018-11-20T15:40:36.014Z,996.57
2018-11-20T15:41:50.518Z,996.61
2018-11-20T15:43:09.914Z,996.64
2018-11-20T15:44:24.463Z,996.66
2018-11-20T15:45:40.360Z,996.61
2018-11-20T15:47:09.917Z,996.67
2018-11-20T15:48:24.374Z,996.63
2018-11-20T15:49:55.661Z,996.69
2018-11-20T15:51:10.713Z,996.71
2018-11-20T15:52:24.928Z,996.75
2018-11-20T15:53:39.988Z,996.7
2018-11-20T15:54:54.463Z,996.73
2018-11-20T15:56:09.225Z,996.74
2018-11-20T15:57:23.739Z,996.77
2018-11-20T15:58:40.757Z,996.84
2018-11-20T15:59:56.071Z,996.88
2018-11-20T16:01:10.739Z,996.89
2018-11-20T16:02:32.661Z,996.81
2018-11-20T16:03:47.146Z,996.88
2018-11-20T16:05:16.419Z,996.84
2018-11-20T16:06:31.787Z,996.83
2018-11-20T16:07:47.088Z,996.87
2018-11-20T16:09:01.040Z,996.85
2018-11-20T16:10:15.841Z,996.84
2018-11-20T16:11:30.638Z,996.94